LPPD/PDL METAR and TAF weather

Enter ICAO airport designator
Station Type Date Time Source
LPPD METAR 2020/08/11 00:00 UTC NOAA

LPPD 110000Z 03010KT 9999 FEW018 21/18 Q1022


Station Type Date Time Source
LPPD Decoded METAR 2020/08/11 00:00 UTC NOAA

Ponta Delgada / Nordela Acores , Portugal (LPPD) 37-44N 025-42W 72M
Aug 10, 2020 - 08:00 PM EDT / 2020.08.11 0000 UTC
Wind: from the NNE (030 degrees) at 12 MPH (10 KT):0
Visibility: greater than 7 mile(s):0
Sky conditions: mostly clear
Temperature: 69 F (21 C)
Dew Point: 64 F (18 C)
Relative Humidity: 82%
Pressure (altimeter): 30.18 in. Hg (1022 hPa)
ob: LPPD 110000Z 03010KT 9999 FEW018 21/18 Q1022
cycle: 0

Station Type Date Time Source
LPPD TAF 2020/08/10 18:18 UTC NOAA

TAF LPPD 101700Z 1018/1118 02012KT 9999 FEW020
TEMPO 1018/1118 SCT015 BKN030 PROB30
TEMPO 1018/1024 6000 -RA SCT006 SCT012

Example: see airport list